Time;durP1;ratioP1;P1;durP2;ratioP2;P2;SDS_P1;SDS_P2;PMS_P1;PMS_P2;Temp;Humidity;BMP_temperature;BMP_pressure;BME280_temperature;BME280_humidity;BME280_pressure;Samples;Min_cycle;Max_cycle;Signal;HPM_P1;HPM_P2
2021/05/15 00:01:14;;;;;;;6.57;5.97;;;10.40;99.90;;;;;;5080881;28;20202;-67
2021/05/15 00:03:39;;;;;;;5.20;4.80;;;10.40;99.90;;;;;;5080102;28;20277;-67
2021/05/15 00:06:05;;;;;;;4.67;3.53;;;10.40;99.90;;;;;;5080457;28;20196;-66
2021/05/15 00:08:31;;;;;;;5.20;4.75;;;10.40;99.90;;;;;;5070615;28;20495;-66
2021/05/15 00:10:57;;;;;;;6.93;6.22;;;10.30;99.90;;;;;;5111321;28;20189;-67
2021/05/15 00:13:24;;;;;;;4.77;4.27;;;10.30;99.90;;;;;;5080566;28;20194;-66
2021/05/15 00:15:50;;;;;;;4.93;4.53;;;10.20;99.90;;;;;;5080159;28;20511;-67
2021/05/15 00:18:16;;;;;;;8.15;5.97;;;10.30;99.90;;;;;;5074290;28;20367;-67
2021/05/15 00:20:42;;;;;;;5.20;4.57;;;10.30;99.90;;;;;;5074556;28;20196;-67
2021/05/15 00:23:08;;;;;;;5.07;4.57;;;10.30;99.90;;;;;;5079947;28;20245;-68
2021/05/15 00:25:33;;;;;;;6.67;5.53;;;10.20;99.90;;;;;;5080350;28;20383;-67
2021/05/15 00:28:00;;;;;;;5.23;4.73;;;10.10;99.90;;;;;;5064507;28;20432;-67
2021/05/15 00:30:26;;;;;;;7.20;5.10;;;10.00;99.90;;;;;;5069326;28;20241;-67
2021/05/15 00:32:52;;;;;;;7.60;5.20;;;10.00;99.90;;;;;;5080235;28;20187;-66
2021/05/15 00:35:18;;;;;;;5.07;4.60;;;10.10;99.90;;;;;;5080053;28;20255;-68
2021/05/15 00:37:44;;;;;;;5.10;4.30;;;10.00;99.90;;;;;;5080340;28;20417;-67
2021/05/15 00:40:12;;;;;;;5.32;4.82;;;10.00;99.90;;;;;;5079755;28;20536;-67
2021/05/15 00:42:38;;;;;;;4.32;3.92;;;10.10;99.90;;;;;;5079997;28;20253;-67
2021/05/15 00:45:07;;;;;;;9.23;6.05;;;10.10;99.90;;;;;;5079518;28;20279;-67
2021/05/15 00:47:33;;;;;;;5.25;4.75;;;10.10;99.90;;;;;;5066939;28;20180;-67
2021/05/15 00:49:59;;;;;;;5.70;5.20;;;10.10;99.90;;;;;;5079557;28;20230;-68
2021/05/15 00:52:27;;;;;;;6.00;5.40;;;10.00;99.90;;;;;;5078329;28;20187;-67
2021/05/15 00:54:54;;;;;;;4.20;3.90;;;10.10;99.90;;;;;;5080129;28;20179;-67
2021/05/15 00:57:21;;;;;;;6.95;6.40;;;10.10;99.90;;;;;;5077969;28;20467;-66
2021/05/15 00:59:46;;;;;;;6.05;5.55;;;10.10;99.90;;;;;;5080168;28;20249;-67
2021/05/15 01:02:13;;;;;;;6.00;5.50;;;10.00;99.90;;;;;;5079582;28;20522;-67
2021/05/15 01:04:39;;;;;;;5.10;4.60;;;10.00;99.90;;;;;;5073733;28;20253;-67
2021/05/15 01:07:10;;;;;;;5.43;4.93;;;10.00;99.90;;;;;;5080252;28;20297;-67
2021/05/15 01:09:36;;;;;;;7.72;4.95;;;9.90;99.90;;;;;;5079675;28;20219;-67
2021/05/15 01:12:04;;;;;;;5.93;5.32;;;10.00;99.90;;;;;;5062442;28;20192;-67
2021/05/15 01:14:34;;;;;;;5.88;5.38;;;9.90;99.90;;;;;;5069693;28;20258;-66
2021/05/15 01:17:00;;;;;;;7.10;4.57;;;9.90;99.90;;;;;;5065825;28;20180;-67
2021/05/15 01:19:26;;;;;;;4.82;4.30;;;9.90;99.90;;;;;;5071545;28;20508;-67
2021/05/15 01:21:53;;;;;;;5.23;4.73;;;9.90;99.90;;;;;;5074658;28;20224;-67
2021/05/15 01:24:19;;;;;;;5.65;4.85;;;9.90;99.90;;;;;;5066194;28;20388;-67
2021/05/15 01:26:45;;;;;;;5.13;4.70;;;9.70;99.90;;;;;;5079214;28;20248;-66
2021/05/15 01:29:10;;;;;;;6.60;5.93;;;9.50;99.90;;;;;;5079732;28;20207;-67
2021/05/15 01:31:38;;;;;;;7.17;6.47;;;9.40;99.90;;;;;;5079969;28;20734;-67
2021/05/15 01:34:05;;;;;;;5.53;5.03;;;9.30;99.90;;;;;;5059758;28;20497;-66
2021/05/15 01:36:35;;;;;;;7.57;6.78;;;9.50;99.90;;;;;;5058255;28;20341;-66
2021/05/15 01:39:01;;;;;;;6.22;5.63;;;9.40;99.90;;;;;;5057761;28;20219;-66
2021/05/15 01:41:27;;;;;;;6.25;5.63;;;9.50;99.90;;;;;;5057684;28;20533;-66
2021/05/15 01:43:58;;;;;;;4.73;4.33;;;9.40;99.90;;;;;;5057428;28;20231;-67
2021/05/15 01:46:26;;;;;;;5.47;5.03;;;9.30;99.90;;;;;;5056053;28;20192;-66
2021/05/15 01:48:52;;;;;;;7.57;6.15;;;9.20;99.90;;;;;;5059366;28;20190;-65
2021/05/15 01:51:18;;;;;;;5.50;4.97;;;9.20;99.90;;;;;;5057795;28;20196;-67
2021/05/15 01:53:47;;;;;;;6.50;5.90;;;9.20;99.90;;;;;;5056598;28;20203;-67
2021/05/15 01:56:15;;;;;;;8.70;6.80;;;9.10;99.90;;;;;;5059321;28;20431;-67
2021/05/15 01:58:41;;;;;;;5.57;4.18;;;9.20;99.90;;;;;;5058975;28;20182;-67
2021/05/15 02:01:08;;;;;;;6.65;6.00;;;9.20;99.90;;;;;;5068853;28;20184;-66
2021/05/15 02:03:35;;;;;;;6.90;6.28;;;9.30;99.90;;;;;;5059716;28;20215;-66
2021/05/15 02:06:01;;;;;;;5.72;4.80;;;9.40;99.90;;;;;;5061360;28;20183;-66
2021/05/15 02:08:29;;;;;;;10.33;7.40;;;9.40;99.90;;;;;;5062498;28;20257;-66
2021/05/15 02:10:58;;;;;;;6.10;5.32;;;9.50;99.90;;;;;;5062571;28;20176;-67
2021/05/15 02:13:28;;;;;;;6.13;5.07;;;9.50;99.90;;;;;;5062820;28;20199;-67
2021/05/15 02:15:55;;;;;;;7.25;6.57;;;9.60;99.90;;;;;;5060278;28;20285;-66
2021/05/15 02:18:22;;;;;;;5.70;5.05;;;9.60;99.90;;;;;;5062634;28;20202;-67
2021/05/15 02:20:49;;;;;;;5.40;4.90;;;9.60;99.90;;;;;;5061867;28;20187;-66
2021/05/15 02:23:15;;;;;;;7.10;5.35;;;9.50;99.90;;;;;;5062473;28;20713;-66
2021/05/15 02:25:42;;;;;;;4.93;4.43;;;9.50;99.90;;;;;;5061678;28;20306;-67
2021/05/15 02:28:09;;;;;;;6.82;5.28;;;9.40;99.90;;;;;;5059726;28;20374;-66
2021/05/15 02:30:35;;;;;;;6.30;5.70;;;9.40;99.90;;;;;;5057719;28;20183;-66
2021/05/15 02:33:01;;;;;;;4.40;3.95;;;9.50;99.90;;;;;;5062665;28;20188;-66
2021/05/15 02:35:28;;;;;;;5.80;5.25;;;9.40;99.90;;;;;;5058918;28;20477;-67
2021/05/15 02:37:54;;;;;;;6.40;4.55;;;9.40;99.90;;;;;;5062225;28;20196;-66
2021/05/15 02:40:21;;;;;;;8.40;5.57;;;9.40;99.90;;;;;;5094035;28;20235;-66
2021/05/15 02:42:49;;;;;;;5.57;5.07;;;9.40;99.90;;;;;;5061616;28;20246;-67
2021/05/15 02:45:17;;;;;;;9.60;6.28;;;9.40;99.90;;;;;;5059332;28;20193;-66
2021/05/15 02:47:43;;;;;;;6.80;6.10;;;9.40;99.90;;;;;;5061461;28;20199;-67
2021/05/15 02:50:13;;;;;;;7.07;6.37;;;9.40;99.90;;;;;;5062080;28;20187;-67
2021/05/15 02:52:40;;;;;;;6.28;5.68;;;9.20;99.90;;;;;;5059367;28;20203;-66
2021/05/15 02:55:08;;;;;;;5.55;5.00;;;9.40;99.90;;;;;;5062069;28;20470;-66
2021/05/15 02:57:34;;;;;;;8.13;5.68;;;9.40;99.90;;;;;;5057280;28;20215;-66
2021/05/15 03:00:01;;;;;;;5.22;4.72;;;9.40;99.90;;;;;;5060061;28;20172;-66
2021/05/15 03:02:27;;;;;;;8.75;6.78;;;9.40;99.90;;;;;;5060139;28;20650;-66
2021/05/15 03:04:52;;;;;;;7.87;7.20;;;9.30;99.90;;;;;;5057903;28;20180;-66
2021/05/15 03:07:18;;;;;;;6.93;6.30;;;9.30;99.90;;;;;;5058414;28;20218;-66
2021/05/15 03:09:45;;;;;;;8.57;7.47;;;9.30;99.90;;;;;;5060087;28;20179;-66
2021/05/15 03:12:12;;;;;;;6.15;5.28;;;9.30;99.90;;;;;;5060868;28;20494;-66
2021/05/15 03:14:38;;;;;;;11.48;6.60;;;9.30;99.90;;;;;;5061684;28;20480;-67
2021/05/15 03:17:04;;;;;;;12.65;7.40;;;9.20;99.90;;;;;;5048614;28;20529;-66
2021/05/15 03:19:30;;;;;;;9.57;5.35;;;9.30;99.90;;;;;;5062104;28;20184;-67
2021/05/15 03:21:56;;;;;;;7.37;6.73;;;9.20;99.90;;;;;;5053265;28;20290;-66
2021/05/15 03:24:22;;;;;;;6.17;5.17;;;9.20;99.90;;;;;;5057597;28;20200;-66
2021/05/15 03:26:48;;;;;;;8.43;6.88;;;9.30;99.90;;;;;;5049558;28;20184;-66
2021/05/15 03:29:14;;;;;;;6.72;5.90;;;9.30;99.90;;;;;;5061257;28;20207;-67
2021/05/15 03:31:40;;;;;;;9.13;8.13;;;9.40;99.90;;;;;;5060887;28;20188;-66
2021/05/15 03:34:07;;;;;;;11.33;8.70;;;9.50;99.90;;;;;;5061312;28;20191;-67
2021/05/15 03:36:34;;;;;;;10.95;8.50;;;9.50;99.90;;;;;;5060812;28;20419;-67
2021/05/15 03:39:00;;;;;;;7.75;6.78;;;9.60;99.90;;;;;;5051797;28;20185;-67
2021/05/15 03:41:27;;;;;;;6.32;5.75;;;9.60;99.90;;;;;;5060393;28;20260;-67
2021/05/15 03:43:52;;;;;;;6.43;5.78;;;9.70;99.90;;;;;;5060942;28;20533;-67
2021/05/15 03:46:18;;;;;;;7.47;6.80;;;9.70;99.90;;;;;;5062314;28;20184;-66
2021/05/15 03:48:44;;;;;;;11.00;8.27;;;9.80;99.90;;;;;;5064539;28;20204;-66
2021/05/15 03:51:09;;;;;;;8.10;7.30;;;9.90;99.90;;;;;;5060506;28;20180;-66
2021/05/15 03:53:35;;;;;;;7.23;5.40;;;9.90;99.90;;;;;;5064370;28;20202;-65
2021/05/15 03:56:01;;;;;;;8.43;7.10;;;10.00;99.90;;;;;;5065487;28;20182;-67
2021/05/15 03:58:27;;;;;;;9.57;8.40;;;10.00;99.90;;;;;;5062114;28;20237;-66
2021/05/15 04:00:53;;;;;;;8.57;7.80;;;10.20;99.90;;;;;;5060777;28;20534;-66
2021/05/15 04:03:19;;;;;;;6.30;5.80;;;10.20;99.90;;;;;;5064349;28;20467;-66
2021/05/15 04:05:44;;;;;;;7.33;6.70;;;10.30;99.90;;;;;;5086116;28;20489;-67
2021/05/15 04:08:10;;;;;;;8.73;7.73;;;10.40;99.90;;;;;;5060158;28;20263;-66
2021/05/15 04:10:37;;;;;;;9.93;7.80;;;10.60;99.90;;;;;;5066170;28;20283;-66
2021/05/15 04:13:18;;;;;;;8.13;6.97;;;10.60;99.90;;;;;;5052711;28;20556;-67
2021/05/15 04:15:50;;;;;;;9.23;8.20;;;10.80;99.90;;;;;;5052839;28;20177;-67
2021/05/15 04:18:16;;;;;;;14.60;8.38;;;10.90;99.90;;;;;;5045508;28;20190;-67
2021/05/15 04:20:44;;;;;;;9.80;8.80;;;10.90;99.90;;;;;;5058725;28;20210;-67
2021/05/15 04:23:10;;;;;;;11.65;9.95;;;11.10;99.90;;;;;;5060444;28;20239;-66
2021/05/15 04:25:37;;;;;;;7.07;6.38;;;11.20;99.90;;;;;;5060059;28;20192;-66
2021/05/15 04:28:04;;;;;;;8.85;7.88;;;11.20;99.90;;;;;;5060209;28;20277;-66
2021/05/15 04:30:31;;;;;;;6.63;6.03;;;11.50;99.90;;;;;;5057684;28;20192;-67
2021/05/15 04:32:57;;;;;;;8.13;7.32;;;11.60;99.90;;;;;;5091264;28;20201;-67
2021/05/15 04:35:23;;;;;;;8.53;7.77;;;11.60;99.90;;;;;;5060149;28;20181;-66
2021/05/15 04:37:50;;;;;;;7.18;6.57;;;11.50;99.90;;;;;;5058254;28;20254;-66
2021/05/15 04:40:16;;;;;;;9.45;7.47;;;11.70;99.90;;;;;;5058353;28;20270;-66
2021/05/15 04:42:42;;;;;;;13.15;9.00;;;11.80;99.90;;;;;;5045937;28;20237;-66
2021/05/15 04:45:10;;;;;;;6.97;5.85;;;11.80;99.90;;;;;;5059914;28;20385;-67
2021/05/15 04:47:37;;;;;;;6.70;5.57;;;12.00;99.90;;;;;;5055578;28;20259;-67
2021/05/15 04:50:05;;;;;;;9.02;7.75;;;12.10;99.90;;;;;;5059913;28;20259;-67
2021/05/15 04:52:30;;;;;;;8.60;6.40;;;12.10;99.90;;;;;;5059659;28;20393;-67
2021/05/15 04:54:56;;;;;;;9.03;6.93;;;12.10;99.90;;;;;;5060071;28;20289;-67
2021/05/15 04:57:22;;;;;;;10.93;8.30;;;12.30;99.90;;;;;;5058551;28;20198;-66
2021/05/15 04:59:48;;;;;;;12.13;8.40;;;12.40;99.90;;;;;;5054788;28;20187;-67
2021/05/15 05:02:13;;;;;;;11.70;6.90;;;12.60;99.90;;;;;;5069451;28;20217;-66
2021/05/15 05:04:39;;;;;;;8.10;7.30;;;12.70;99.90;;;;;;5061369;28;20664;-67
2021/05/15 05:07:05;;;;;;;6.37;5.57;;;13.00;99.90;;;;;;5059634;28;20398;-67
2021/05/15 05:09:31;;;;;;;7.97;7.07;;;13.10;99.90;;;;;;5045615;28;20191;-67
2021/05/15 05:11:57;;;;;;;7.43;6.10;;;13.40;99.90;;;;;;5059729;28;20418;-67
2021/05/15 05:14:23;;;;;;;5.47;5.07;;;13.70;99.90;;;;;;5049212;28;20651;-67
2021/05/15 05:16:50;;;;;;;7.50;5.90;;;13.80;99.90;;;;;;5057923;28;20439;-68
2021/05/15 05:19:17;;;;;;;9.35;7.13;;;13.90;99.90;;;;;;5060755;28;20481;-69
2021/05/15 05:21:42;;;;;;;6.78;6.13;;;14.00;99.90;;;;;;5059044;28;20454;-67
2021/05/15 05:24:08;;;;;;;6.00;5.47;;;14.10;99.90;;;;;;5059985;28;20191;-67
2021/05/15 05:26:37;;;;;;;5.85;5.30;;;14.10;99.90;;;;;;5059798;28;20425;-67
2021/05/15 05:29:07;;;;;;;5.85;5.35;;;14.10;99.90;;;;;;5057640;28;20532;-68
2021/05/15 05:31:38;;;;;;;7.07;6.15;;;14.30;99.90;;;;;;5057862;28;20381;-68
2021/05/15 05:34:04;;;;;;;7.30;6.50;;;14.40;99.90;;;;;;5057762;28;20410;-68
2021/05/15 05:36:31;;;;;;;8.45;5.70;;;14.40;99.90;;;;;;5050481;28;20193;-69
2021/05/15 05:38:57;;;;;;;9.45;7.32;;;14.70;99.90;;;;;;5055383;28;20187;-68
2021/05/15 05:41:24;;;;;;;6.60;5.77;;;15.10;99.90;;;;;;5043699;28;20500;-68
2021/05/15 05:43:53;;;;;;;8.30;7.05;;;15.30;99.90;;;;;;5056969;28;20211;-68
2021/05/15 05:46:20;;;;;;;8.75;5.03;;;15.50;99.90;;;;;;5043434;28;20197;-69
2021/05/15 05:48:46;;;;;;;9.00;6.13;;;15.80;99.90;;;;;;5055251;28;20184;-69
2021/05/15 05:51:12;;;;;;;7.95;5.03;;;16.00;99.80;;;;;;5061993;28;20264;-68
2021/05/15 05:53:38;;;;;;;6.03;5.43;;;16.10;99.20;;;;;;5063186;28;20188;-69
2021/05/15 05:56:04;;;;;;;6.47;5.53;;;16.20;98.40;;;;;;5062545;28;20419;-68
2021/05/15 05:58:30;;;;;;;5.70;5.20;;;16.30;98.20;;;;;;5062506;28;20396;-69
2021/05/15 06:00:56;;;;;;;6.77;6.17;;;16.60;98.30;;;;;;5062809;28;20399;-68
2021/05/15 06:03:22;;;;;;;7.17;6.57;;;17.00;95.90;;;;;;5063404;28;20415;-69
2021/05/15 06:05:48;;;;;;;6.43;5.90;;;17.10;96.40;;;;;;5062341;28;20402;-69
2021/05/15 06:08:14;;;;;;;6.00;5.50;;;17.30;96.20;;;;;;5062773;28;20410;-69
2021/05/15 06:10:40;;;;;;;6.63;6.07;;;17.50;95.20;;;;;;5061897;28;20430;-69
2021/05/15 06:13:11;;;;;;;7.00;6.13;;;17.90;94.40;;;;;;5060215;28;20808;-69
2021/05/15 06:15:39;;;;;;;6.17;5.83;;;18.40;93.60;;;;;;5060459;28;20415;-70
2021/05/15 06:18:05;;;;;;;6.53;6.13;;;19.00;92.60;;;;;;5061539;28;20420;-68
2021/05/15 06:20:31;;;;;;;7.00;6.17;;;20.50;90.00;;;;;;5058146;28;20413;-68
2021/05/15 06:22:57;;;;;;;6.83;6.43;;;21.80;83.80;;;;;;5061841;28;20435;-69
2021/05/15 06:25:23;;;;;;;7.70;7.10;;;22.70;81.40;;;;;;5060387;28;20398;-68
2021/05/15 06:27:49;;;;;;;7.43;7.03;;;23.30;76.40;;;;;;5060663;28;20380;-69
2021/05/15 06:30:17;;;;;;;8.03;7.53;;;23.40;75.00;;;;;;5058471;28;20419;-68
2021/05/15 06:32:43;;;;;;;7.90;7.50;;;24.00;72.60;;;;;;5060544;28;20255;-69
2021/05/15 06:35:10;;;;;;;8.33;7.60;;;25.30;67.50;;;;;;5060133;28;20422;-70
2021/05/15 06:37:37;;;;;;;7.57;6.97;;;26.30;60.70;;;;;;5060057;28;20573;-68
2021/05/15 06:40:04;;;;;;;8.80;8.30;;;26.50;60.00;;;;;;5061166;28;20712;-69
2021/05/15 06:42:30;;;;;;;8.73;8.23;;;26.40;60.00;;;;;;5061458;28;20443;-69
2021/05/15 06:44:55;;;;;;;8.67;8.27;;;26.70;57.10;;;;;;5053851;28;20405;-69
2021/05/15 06:47:21;;;;;;;8.13;7.73;;;27.60;54.70;;;;;;5060830;28;20190;-67
2021/05/15 06:49:49;;;;;;;8.80;8.30;;;28.50;52.40;;;;;;5059035;28;20245;-68
2021/05/15 06:52:15;;;;;;;8.27;7.87;;;27.90;50.90;;;;;;5061629;28;20201;-69
2021/05/15 06:54:41;;;;;;;9.23;8.70;;;27.70;49.90;;;;;;5059885;28;20424;-68
2021/05/15 06:57:07;;;;;;;8.93;8.53;;;28.90;49.40;;;;;;5061543;28;20593;-70
2021/05/15 06:59:34;;;;;;;9.30;8.70;;;29.60;47.40;;;;;;5062180;28;20495;-69
2021/05/15 07:02:00;;;;;;;9.03;8.60;;;31.40;43.90;;;;;;5061185;28;20215;-69
2021/05/15 07:04:26;;;;;;;8.90;8.50;;;33.40;40.50;;;;;;5060244;28;20512;-70
2021/05/15 07:06:52;;;;;;;8.80;8.40;;;35.20;36.00;;;;;;5060980;28;20448;-68
2021/05/15 07:09:18;;;;;;;9.73;9.30;;;36.40;33.40;;;;;;5060801;28;20774;-68
2021/05/15 07:11:44;;;;;;;8.93;8.53;;;37.10;32.50;;;;;;5056781;28;20537;-69
2021/05/15 07:14:10;;;;;;;9.10;8.70;;;37.40;32.00;;;;;;5060195;28;20416;-67
2021/05/15 07:16:36;;;;;;;9.17;8.87;;;38.10;30.00;;;;;;5060205;28;20191;-69
2021/05/15 07:19:01;;;;;;;10.00;9.30;;;37.90;30.00;;;;;;5058615;28;20484;-69
2021/05/15 07:21:27;;;;;;;9.37;8.97;;;37.00;31.50;;;;;;5060089;28;20187;-70
2021/05/15 07:23:53;;;;;;;8.93;8.60;;;35.50;32.40;;;;;;5060931;28;20483;-69
2021/05/15 07:26:19;;;;;;;9.30;8.80;;;32.20;34.90;;;;;;5061020;28;20218;-68
2021/05/15 07:28:44;;;;;;;9.03;8.63;;;30.60;37.80;;;;;;5057871;28;20213;-69
2021/05/15 07:31:10;;;;;;;8.63;8.23;;;29.40;40.60;;;;;;5058687;28;20264;-68
2021/05/15 07:33:37;;;;;;;8.90;8.50;;;29.30;39.90;;;;;;5060254;28;20251;-69
2021/05/15 07:36:03;;;;;;;8.50;8.00;;;29.80;39.70;;;;;;5057933;28;20183;-69
2021/05/15 07:38:29;;;;;;;9.13;8.73;;;30.40;38.40;;;;;;5060512;28;20745;-69
2021/05/15 07:40:55;;;;;;;9.33;8.93;;;31.80;36.60;;;;;;5060327;28;20533;-69
2021/05/15 07:43:26;;;;;;;9.63;9.13;;;34.20;34.80;;;;;;5059489;28;20468;-69
2021/05/15 07:45:56;;;;;;;9.00;8.60;;;36.40;31.50;;;;;;5059677;28;20421;-69
2021/05/15 07:48:29;;;;;;;9.37;8.90;;;37.50;29.70;;;;;;5059737;28;20415;-68
2021/05/15 07:50:56;;;;;;;8.87;8.47;;;38.00;28.60;;;;;;5059171;28;20474;-70
2021/05/15 07:53:23;;;;;;;8.37;8.07;;;38.60;28.30;;;;;;5059123;28;20483;-69
2021/05/15 07:55:49;;;;;;;8.97;8.57;;;39.00;28.00;;;;;;5060303;28;20417;-69
2021/05/15 07:58:16;;;;;;;8.83;8.43;;;38.50;27.80;;;;;;5059672;28;20488;-69
2021/05/15 08:00:42;;;;;;;8.40;7.80;;;38.00;27.80;;;;;;5057195;28;20429;-70
2021/05/15 08:03:08;;;;;;;9.60;9.20;;;36.80;28.60;;;;;;5058621;28;20529;-70
2021/05/15 08:05:33;;;;;;;9.60;9.10;;;36.10;30.20;;;;;;5059576;28;20187;-70
2021/05/15 08:08:01;;;;;;;8.30;8.00;;;36.30;30.00;;;;;;5059990;28;20201;-71
2021/05/15 08:10:27;;;;;;;9.03;8.53;;;36.60;29.70;;;;;;5059942;28;20218;-71
2021/05/15 08:12:53;;;;;;;9.10;8.47;;;36.00;29.50;;;;;;5059501;28;20425;-70
2021/05/15 08:15:19;;;;;;;8.60;8.20;;;36.70;28.60;;;;;;5057036;28;20206;-70
2021/05/15 08:17:44;;;;;;;8.70;8.40;;;37.80;27.60;;;;;;5058944;28;20367;-71
2021/05/15 08:20:11;;;;;;;9.17;8.77;;;37.30;28.70;;;;;;5060132;28;20212;-72
2021/05/15 08:22:36;;;;;;;7.40;7.10;;;37.10;28.30;;;;;;5058124;28;20263;-71
2021/05/15 08:25:05;;;;;;;8.87;8.27;;;37.30;28.30;;;;;;5059731;28;20590;-70
2021/05/15 08:27:33;;;;;;;8.60;8.30;;;36.80;28.00;;;;;;5058927;28;20453;-70
2021/05/15 08:29:59;;;;;;;7.97;7.67;;;37.00;29.00;;;;;;5058524;28;20431;-70
2021/05/15 08:32:25;;;;;;;7.93;7.63;;;37.80;28.40;;;;;;5056818;28;20723;-71
2021/05/15 08:34:51;;;;;;;8.40;8.10;;;38.00;27.70;;;;;;5059464;28;20427;-68
2021/05/15 08:37:17;;;;;;;8.77;8.17;;;36.90;28.10;;;;;;5059686;28;20445;-69
2021/05/15 08:39:42;;;;;;;8.70;8.30;;;36.50;28.50;;;;;;5058232;28;20456;-70
2021/05/15 08:42:09;;;;;;;9.03;8.63;;;35.60;29.20;;;;;;5059336;28;20259;-68
2021/05/15 08:44:37;;;;;;;8.20;7.90;;;35.10;30.00;;;;;;5059236;28;20512;-70
2021/05/15 08:47:06;;;;;;;8.80;8.40;;;34.50;30.90;;;;;;5059555;28;20420;-71
2021/05/15 08:49:35;;;;;;;8.00;7.60;;;34.70;31.40;;;;;;5059314;28;20412;-70
2021/05/15 08:52:02;;;;;;;7.60;7.20;;;34.50;30.00;;;;;;5055000;28;20421;-70
2021/05/15 08:54:28;;;;;;;8.13;7.73;;;33.10;32.60;;;;;;5058029;28;20603;-70
2021/05/15 08:56:54;;;;;;;8.40;8.00;;;32.00;32.90;;;;;;5056110;28;20732;-70
2021/05/15 08:59:20;;;;;;;8.70;8.20;;;32.50;33.00;;;;;;5056656;28;20421;-70
2021/05/15 09:01:46;;;;;;;7.70;7.40;;;33.30;32.10;;;;;;5059013;28;20221;-70
2021/05/15 09:04:12;;;;;;;8.00;7.70;;;33.20;33.00;;;;;;5056422;28;20264;-69
2021/05/15 09:06:41;;;;;;;7.20;6.90;;;32.80;33.90;;;;;;5057132;28;20836;-70
2021/05/15 09:09:09;;;;;;;7.40;7.10;;;31.40;35.80;;;;;;5058717;28;20806;-70
2021/05/15 09:11:36;;;;;;;8.23;7.83;;;29.90;38.10;;;;;;5058343;28;20456;-71
2021/05/15 09:14:03;;;;;;;7.50;7.20;;;28.50;39.90;;;;;;5061048;28;20452;-71
2021/05/15 09:16:30;;;;;;;7.47;7.17;;;27.30;39.40;;;;;;5062292;28;20493;-72
2021/05/15 09:19:05;;;;;;;6.90;6.60;;;26.50;41.50;;;;;;5061682;28;20515;-70
2021/05/15 09:21:34;;;;;;;6.77;6.50;;;27.40;41.00;;;;;;5061242;28;20439;-71
2021/05/15 09:24:05;;;;;;;7.23;6.83;;;28.80;38.40;;;;;;5061985;28;20488;-71
2021/05/15 09:26:33;;;;;;;7.23;6.93;;;30.70;36.60;;;;;;5062635;28;20913;-72
2021/05/15 09:29:00;;;;;;;7.10;6.70;;;31.80;35.20;;;;;;5060051;28;20461;-70
2021/05/15 09:31:32;;;;;;;6.77;6.40;;;30.50;37.10;;;;;;5060102;28;20495;-71
2021/05/15 09:34:02;;;;;;;6.97;6.60;;;28.70;38.60;;;;;;5060573;28;20441;-71
2021/05/15 09:36:36;;;;;;;7.20;6.90;;;27.00;42.60;;;;;;5060397;28;20430;-72
2021/05/15 09:39:04;;;;;;;6.57;6.30;;;25.70;43.00;;;;;;5061025;28;20475;-72
2021/05/15 09:41:39;;;;;;;6.93;6.53;;;24.60;44.90;;;;;;5060079;28;20422;-71
2021/05/15 09:44:09;;;;;;;6.50;6.10;;;24.20;46.50;;;;;;5060147;28;20674;-69
2021/05/15 09:46:38;;;;;;;6.43;6.13;;;24.30;48.10;;;;;;5061369;28;20443;-71
2021/05/15 09:49:06;;;;;;;6.13;5.93;;;24.30;47.10;;;;;;5062534;28;20436;-72
2021/05/15 09:51:35;;;;;;;7.10;6.70;;;24.30;47.20;;;;;;5059550;28;20452;-71
2021/05/15 09:54:19;;;;;;;7.07;6.67;;;24.70;47.60;;;;;;5062188;28;20600;-70
2021/05/15 09:57:09;;;;;;;6.17;5.70;;;24.80;47.50;;;;;;5059573;28;20427;-72
2021/05/15 09:59:41;;;;;;;6.83;6.60;;;24.40;48.20;;;;;;5062036;28;20421;-71
2021/05/15 10:02:16;;;;;;;6.73;6.33;;;24.10;48.60;;;;;;5059623;28;20443;-70
2021/05/15 10:04:45;;;;;;;6.03;5.83;;;24.30;50.90;;;;;;5058612;28;20520;-72
2021/05/15 10:07:17;;;;;;;6.30;6.00;;;24.20;48.50;;;;;;5061946;28;20452;-71
2021/05/15 10:09:45;;;;;;;6.40;6.10;;;24.10;48.10;;;;;;5061160;28;20436;-71
2021/05/15 10:12:17;;;;;;;6.00;5.70;;;24.20;49.60;;;;;;5061747;28;20516;-70
2021/05/15 10:14:44;;;;;;;6.07;5.77;;;24.50;49.30;;;;;;5059070;28;20441;-71
2021/05/15 10:17:11;;;;;;;6.67;6.37;;;24.50;49.20;;;;;;5059591;28;20460;-70
2021/05/15 10:19:38;;;;;;;6.10;5.80;;;24.20;48.90;;;;;;5059881;28;20491;-71
2021/05/15 10:22:05;;;;;;;6.23;5.93;;;23.80;49.30;;;;;;5061421;28;20436;-71
2021/05/15 10:24:34;;;;;;;5.70;5.43;;;23.50;50.80;;;;;;5056715;28;20882;-69
2021/05/15 10:27:13;;;;;;;5.93;5.37;;;23.30;50.50;;;;;;5059283;28;20445;-70
2021/05/15 10:29:41;;;;;;;5.73;5.53;;;23.10;51.10;;;;;;5061534;28;20522;-71
2021/05/15 10:32:30;;;;;;;5.80;5.53;;;23.60;50.90;;;;;;5058031;28;20429;-71
2021/05/15 10:35:07;;;;;;;5.97;5.67;;;23.60;48.90;;;;;;5060758;28;20441;-71
2021/05/15 10:37:39;;;;;;;6.43;6.13;;;23.10;49.80;;;;;;5058873;28;20444;-71
2021/05/15 10:40:18;;;;;;;5.93;5.53;;;22.80;50.10;;;;;;5058529;28;20446;-70
2021/05/15 10:42:56;;;;;;;6.10;5.87;;;22.50;50.90;;;;;;5093165;28;20519;-71
2021/05/15 10:45:33;;;;;;;6.00;5.70;;;22.90;51.70;;;;;;5061266;28;20403;-71
2021/05/15 10:48:22;;;;;;;5.40;5.20;;;23.30;51.10;;;;;;5059090;28;20445;-71
2021/05/15 10:50:53;;;;;;;6.67;6.07;;;23.60;49.20;;;;;;5059406;28;20437;-70
2021/05/15 10:53:26;;;;;;;5.80;5.40;;;23.60;49.70;;;;;;5060559;28;20785;-71
2021/05/15 10:56:24;;;;;;;5.47;5.27;;;23.90;50.50;;;;;;5061455;28;20535;-72
2021/05/15 10:58:59;;;;;;;5.73;5.53;;;24.40;48.70;;;;;;5056404;28;20419;-70
2021/05/15 11:01:27;;;;;;;7.10;6.53;;;24.50;48.10;;;;;;5060496;28;20448;-71
2021/05/15 11:03:55;;;;;;;5.90;5.60;;;24.50;46.90;;;;;;5060996;28;20818;-71
2021/05/15 11:06:24;;;;;;;5.63;5.43;;;24.30;48.40;;;;;;5058712;28;20441;-71
2021/05/15 11:08:57;;;;;;;5.93;5.63;;;24.30;49.10;;;;;;5059321;28;20400;-70
2021/05/15 11:11:44;;;;;;;5.90;5.60;;;24.20;47.90;;;;;;5059097;28;20486;-72
2021/05/15 11:14:34;;;;;;;6.37;6.07;;;24.30;48.20;;;;;;5061149;28;20454;-71
2021/05/15 11:17:31;;;;;;;5.87;5.57;;;24.00;48.40;;;;;;5059940;28;20419;-71
2021/05/15 11:20:18;;;;;;;6.00;5.70;;;23.90;48.60;;;;;;5059566;28;20467;-70
2021/05/15 11:22:50;;;;;;;6.00;5.70;;;24.10;47.90;;;;;;5060448;28;20829;-71
2021/05/15 11:25:28;;;;;;;5.77;5.47;;;24.40;48.20;;;;;;5060139;28;20789;-71
2021/05/15 11:28:02;;;;;;;5.73;5.53;;;24.80;47.70;;;;;;5092296;28;20453;-70
2021/05/15 11:30:33;;;;;;;6.50;6.03;;;25.20;46.40;;;;;;5055304;28;20621;-71
2021/05/15 11:33:04;;;;;;;5.77;5.50;;;25.10;47.00;;;;;;5060231;28;20730;-71
2021/05/15 11:35:46;;;;;;;5.50;5.30;;;25.00;46.60;;;;;;5059973;28;20481;-70
2021/05/15 11:38:20;;;;;;;5.50;5.20;;;24.60;46.60;;;;;;5058796;28;20429;-72
2021/05/15 11:40:47;;;;;;;5.13;4.93;;;24.80;46.90;;;;;;5058567;28;20495;-70
2021/05/15 11:43:21;;;;;;;5.90;5.70;;;25.00;46.30;;;;;;5059189;28;20734;-71
2021/05/15 11:45:50;;;;;;;5.17;4.93;;;25.60;46.60;;;;;;5057502;28;20439;-71
2021/05/15 11:48:23;;;;;;;4.80;4.60;;;25.60;46.80;;;;;;5059750;28;20408;-70
2021/05/15 11:51:01;;;;;;;5.33;5.13;;;26.00;45.80;;;;;;5056268;28;20434;-70
2021/05/15 11:53:31;;;;;;;5.10;4.90;;;25.60;45.60;;;;;;5056034;28;20460;-72
2021/05/15 11:55:58;;;;;;;5.90;5.60;;;25.40;46.00;;;;;;5059518;28;20442;-72
2021/05/15 11:58:25;;;;;;;5.70;5.30;;;24.90;46.10;;;;;;5055842;28;20447;-71
2021/05/15 12:00:53;;;;;;;5.00;4.80;;;24.70;46.60;;;;;;5059794;28;20441;-72
2021/05/15 12:03:25;;;;;;;5.03;4.83;;;24.70;47.60;;;;;;5059517;28;20715;-72
2021/05/15 12:05:53;;;;;;;4.90;4.70;;;24.70;47.20;;;;;;5060221;28;20443;-70
2021/05/15 12:08:20;;;;;;;4.33;4.23;;;24.50;45.70;;;;;;5057303;28;20448;-70
2021/05/15 12:10:48;;;;;;;5.33;5.13;;;24.40;46.70;;;;;;5059793;28;20445;-70
2021/05/15 12:13:16;;;;;;;4.60;4.50;;;23.90;45.60;;;;;;5059458;28;20452;-70
2021/05/15 12:15:52;;;;;;;5.20;5.00;;;23.60;45.80;;;;;;5058097;28;20445;-70
2021/05/15 12:18:19;;;;;;;5.30;5.10;;;23.60;45.80;;;;;;5059203;28;20600;-69
2021/05/15 12:20:51;;;;;;;4.90;4.73;;;23.50;44.40;;;;;;5059425;28;20440;-69
2021/05/15 12:23:23;;;;;;;4.73;4.57;;;23.40;45.80;;;;;;5089835;28;20450;-71
2021/05/15 12:26:07;;;;;;;5.03;4.83;;;23.40;45.50;;;;;;5057084;28;20746;-70
2021/05/15 12:28:54;;;;;;;4.70;4.50;;;23.40;46.10;;;;;;5070217;28;20788;-70
2021/05/15 12:31:27;;;;;;;4.90;4.70;;;24.10;45.60;;;;;;5057907;28;20430;-71
2021/05/15 12:33:56;;;;;;;4.70;4.50;;;24.10;44.30;;;;;;5055383;28;20441;-70
2021/05/15 12:36:29;;;;;;;4.63;4.53;;;24.70;45.40;;;;;;5057339;28;20528;-71
2021/05/15 12:38:58;;;;;;;5.73;5.43;;;24.60;42.70;;;;;;5059401;28;20424;-71
2021/05/15 12:41:37;;;;;;;4.40;4.20;;;24.10;44.00;;;;;;5057721;28;20437;-71
2021/05/15 12:44:12;;;;;;;4.53;4.43;;;23.90;44.50;;;;;;5049522;28;20798;-71
2021/05/15 12:46:42;;;;;;;4.73;4.47;;;23.50;46.00;;;;;;5055757;28;20982;-70
2021/05/15 12:49:36;;;;;;;5.03;4.83;;;23.10;47.60;;;;;;5077816;28;20447;-71
2021/05/15 12:52:24;;;;;;;6.30;6.00;;;22.80;49.60;;;;;;5053938;28;20415;-70
2021/05/15 12:54:53;;;;;;;5.70;5.40;;;22.50;50.30;;;;;;5057706;28;20441;-71